Time;durP1;ratioP1;P1;durP2;ratioP2;P2;SDS_P1;SDS_P2;PMS_P1;PMS_P2;Temp;Humidity;BMP_temperature;BMP_pressure;BME280_temperature;BME280_humidity;BME280_pressure;Samples;Min_cycle;Max_cycle;Signal;HPM_P1;HPM_P2
2022/03/09 00:00:07;;;;;;;1.75;1.10;;;22.00;53.70;;;;;;5052853;28;20057;-65
2022/03/09 00:02:33;;;;;;;1.52;1.02;;;22.00;53.70;;;;;;5034973;28;20033;-65
2022/03/09 00:04:58;;;;;;;1.75;1.33;;;21.90;53.70;;;;;;5052727;28;20033;-65
2022/03/09 00:07:26;;;;;;;2.45;1.00;;;21.90;53.70;;;;;;5052646;28;20036;-65
2022/03/09 00:09:51;;;;;;;1.50;1.10;;;21.90;53.70;;;;;;5052322;28;20025;-65
2022/03/09 00:12:17;;;;;;;1.15;0.98;;;21.90;53.70;;;;;;5052703;28;20036;-65
2022/03/09 00:14:43;;;;;;;2.00;1.17;;;21.90;53.70;;;;;;5052582;28;20029;-65
2022/03/09 00:17:09;;;;;;;1.50;0.80;;;21.90;53.70;;;;;;5052583;28;20025;-65
2022/03/09 00:19:34;;;;;;;1.65;1.00;;;21.90;53.80;;;;;;5052403;28;20025;-65
2022/03/09 00:22:00;;;;;;;2.22;0.82;;;21.90;53.80;;;;;;5052155;28;20487;-65
2022/03/09 00:24:26;;;;;;;1.48;0.80;;;21.90;53.80;;;;;;5052255;28;20187;-65
2022/03/09 00:26:51;;;;;;;1.88;1.15;;;21.90;53.80;;;;;;5052369;28;20593;-65
2022/03/09 00:29:17;;;;;;;2.08;0.90;;;21.90;53.90;;;;;;5052303;28;20025;-65
2022/03/09 00:31:43;;;;;;;2.10;1.00;;;21.90;53.90;;;;;;5052257;28;20025;-65
2022/03/09 00:34:08;;;;;;;5.20;1.20;;;21.90;53.90;;;;;;5052514;28;20021;-65
2022/03/09 00:36:34;;;;;;;3.00;1.13;;;21.90;53.90;;;;;;5052233;28;20059;-65
2022/03/09 00:39:00;;;;;;;1.55;1.08;;;21.90;53.90;;;;;;5052006;28;20060;-65
2022/03/09 00:41:25;;;;;;;1.58;0.80;;;21.90;53.90;;;;;;5052180;28;20091;-65
2022/03/09 00:43:51;;;;;;;0.85;0.80;;;21.90;53.90;;;;;;5052320;28;20029;-65
2022/03/09 00:46:16;;;;;;;1.65;0.98;;;21.90;54.00;;;;;;5052176;28;20033;-65
2022/03/09 00:48:42;;;;;;;1.25;1.00;;;21.80;53.90;;;;;;5052094;28;20081;-65
2022/03/09 00:51:08;;;;;;;0.82;0.80;;;21.80;54.00;;;;;;5052235;28;20098;-65
2022/03/09 00:53:33;;;;;;;1.80;1.00;;;21.80;54.00;;;;;;5051878;28;20017;-65
2022/03/09 00:55:59;;;;;;;1.67;1.00;;;21.80;54.00;;;;;;5051968;28;20109;-65
2022/03/09 00:58:25;;;;;;;1.85;1.20;;;21.80;54.10;;;;;;5052232;28;20021;-65
2022/03/09 01:00:50;;;;;;;1.35;0.90;;;21.80;54.10;;;;;;5054664;28;20047;-65
2022/03/09 01:03:16;;;;;;;2.17;0.77;;;21.80;54.00;;;;;;5056342;28;20028;-65
2022/03/09 01:05:41;;;;;;;1.30;0.88;;;21.80;54.00;;;;;;5055816;28;20029;-65
2022/03/09 01:08:07;;;;;;;2.20;0.88;;;21.80;54.10;;;;;;5056008;28;20029;-65
2022/03/09 01:10:33;;;;;;;1.15;0.93;;;21.80;54.10;;;;;;5056059;28;20509;-65
2022/03/09 01:12:59;;;;;;;1.38;0.90;;;21.80;54.20;;;;;;5056014;28;20529;-65
2022/03/09 01:15:24;;;;;;;1.08;0.85;;;21.80;54.10;;;;;;5054099;28;20437;-65
2022/03/09 01:17:50;;;;;;;1.17;0.70;;;21.80;54.10;;;;;;5035943;28;20018;-65
2022/03/09 01:20:16;;;;;;;0.90;0.77;;;21.80;54.20;;;;;;5035723;28;20028;-65
2022/03/09 01:22:41;;;;;;;1.23;0.90;;;21.80;54.20;;;;;;5043647;28;20072;-65
2022/03/09 01:25:08;;;;;;;1.75;0.77;;;21.80;54.20;;;;;;5055845;28;20025;-65
2022/03/09 01:27:33;;;;;;;1.30;0.80;;;21.80;54.20;;;;;;5055526;28;20107;-65
2022/03/09 01:29:59;;;;;;;2.00;0.82;;;21.80;54.20;;;;;;5055674;28;20159;-65
2022/03/09 01:32:25;;;;;;;0.90;0.73;;;21.80;54.20;;;;;;5055819;28;20510;-65
2022/03/09 01:34:50;;;;;;;1.17;0.88;;;21.80;54.20;;;;;;5055232;28;20383;-65
2022/03/09 01:37:16;;;;;;;2.00;0.85;;;21.80;54.20;;;;;;5055604;28;20028;-65
2022/03/09 01:39:42;;;;;;;1.05;0.82;;;21.80;54.30;;;;;;5055297;28;20024;-65
2022/03/09 01:42:08;;;;;;;1.25;0.80;;;21.80;54.30;;;;;;5055444;28;20028;-65
2022/03/09 01:44:33;;;;;;;1.10;0.85;;;21.80;54.30;;;;;;5055506;28;20025;-65
2022/03/09 01:46:59;;;;;;;0.85;0.70;;;21.80;54.30;;;;;;5037499;28;20047;-65
2022/03/09 01:49:25;;;;;;;0.93;0.68;;;21.80;54.30;;;;;;5055484;28;20036;-65
2022/03/09 01:51:52;;;;;;;0.80;0.60;;;21.80;54.30;;;;;;5037319;28;20013;-65
2022/03/09 01:54:18;;;;;;;0.82;0.55;;;21.80;54.30;;;;;;5055227;28;20052;-65
2022/03/09 01:56:43;;;;;;;0.70;0.70;;;21.80;54.40;;;;;;5055073;28;20056;-65
2022/03/09 01:59:10;;;;;;;1.45;0.82;;;21.70;54.40;;;;;;5037467;28;20132;-65
2022/03/09 02:01:36;;;;;;;1.33;0.90;;;21.80;54.40;;;;;;5055103;28;20029;-65
2022/03/09 02:04:03;;;;;;;1.20;0.90;;;21.70;54.40;;;;;;5054716;28;20036;-65
2022/03/09 02:06:29;;;;;;;0.95;0.88;;;21.70;54.40;;;;;;5037180;28;20024;-65
2022/03/09 02:11:39;;;;;;;1.05;0.60;;;21.80;54.50;;;;;;5054244;28;20072;-65
2022/03/09 02:14:05;;;;;;;0.98;0.70;;;21.70;54.50;;;;;;5020679;28;20060;-65
2022/03/09 02:16:30;;;;;;;1.50;0.85;;;21.70;54.50;;;;;;5054833;28;20025;-65
2022/03/09 02:18:56;;;;;;;1.50;0.70;;;21.70;54.50;;;;;;5054524;28;20394;-65
2022/03/09 02:21:23;;;;;;;0.60;0.60;;;21.70;54.50;;;;;;5053402;28;20025;-65
2022/03/09 02:23:49;;;;;;;1.10;0.73;;;21.80;54.60;;;;;;5053122;28;20116;-65
2022/03/09 02:26:14;;;;;;;1.05;0.75;;;21.80;54.70;;;;;;5053423;28;20106;-65
2022/03/09 02:28:45;;;;;;;1.90;0.50;;;21.80;54.70;;;;;;5053366;28;20060;-65
2022/03/09 02:31:11;;;;;;;1.35;1.00;;;21.80;54.70;;;;;;5054600;28;20032;-65
2022/03/09 02:33:36;;;;;;;2.45;1.00;;;21.80;54.70;;;;;;5054423;28;20021;-65
2022/03/09 02:36:03;;;;;;;2.25;0.70;;;21.80;54.70;;;;;;5054212;28;20056;-65
2022/03/09 02:38:28;;;;;;;1.30;0.73;;;21.70;54.70;;;;;;5054667;28;20019;-65
2022/03/09 02:40:54;;;;;;;2.17;0.70;;;21.80;54.70;;;;;;5054171;28;20028;-65
2022/03/09 02:43:19;;;;;;;0.70;0.70;;;21.80;54.70;;;;;;5054362;28;20057;-65
2022/03/09 02:45:45;;;;;;;0.93;0.60;;;21.80;54.80;;;;;;5054261;28;20025;-65
2022/03/09 02:48:11;;;;;;;1.08;0.95;;;21.80;54.80;;;;;;5052845;28;20029;-65
2022/03/09 02:50:36;;;;;;;1.15;0.60;;;21.80;54.80;;;;;;5054272;28;20021;-65
2022/03/09 02:53:02;;;;;;;0.88;0.63;;;21.80;54.80;;;;;;5053954;28;20032;-65
2022/03/09 02:55:28;;;;;;;1.40;0.73;;;21.70;54.70;;;;;;5054119;28;20025;-65
2022/03/09 02:57:53;;;;;;;1.30;0.68;;;21.80;54.80;;;;;;5054082;28;20390;-65
2022/03/09 03:00:19;;;;;;;0.80;0.70;;;21.80;54.90;;;;;;5053986;28;20040;-65
2022/03/09 03:02:45;;;;;;;0.65;0.55;;;21.80;54.90;;;;;;5053869;28;20025;-65
2022/03/09 03:05:10;;;;;;;1.25;0.57;;;21.80;54.90;;;;;;5053936;28;20036;-65
2022/03/09 03:07:36;;;;;;;0.95;0.75;;;21.80;54.90;;;;;;5052931;28;20036;-65
2022/03/09 03:10:03;;;;;;;1.20;0.80;;;21.80;54.90;;;;;;5053629;28;20475;-65
2022/03/09 03:12:29;;;;;;;1.27;0.70;;;21.80;54.90;;;;;;5053721;28;20021;-65
2022/03/09 03:14:54;;;;;;;0.90;0.65;;;21.70;54.90;;;;;;5053670;28;20033;-65
2022/03/09 03:17:20;;;;;;;1.02;0.70;;;21.80;54.90;;;;;;5053373;28;20033;-65
2022/03/09 03:19:46;;;;;;;0.70;0.57;;;21.80;54.90;;;;;;5053883;28;20039;-65
2022/03/09 03:22:11;;;;;;;0.93;0.70;;;21.70;54.90;;;;;;5053297;28;20499;-65
2022/03/09 03:24:37;;;;;;;0.95;0.60;;;21.80;55.00;;;;;;5035640;28;20037;-65
2022/03/09 03:27:02;;;;;;;1.10;0.73;;;21.70;54.90;;;;;;5033466;28;20041;-65
2022/03/09 03:29:28;;;;;;;0.70;0.50;;;21.80;55.00;;;;;;5033561;28;20025;-65
2022/03/09 03:31:54;;;;;;;0.75;0.60;;;21.80;55.00;;;;;;5033324;28;20076;-65
2022/03/09 03:34:20;;;;;;;1.23;0.70;;;21.70;55.00;;;;;;5033296;28;20115;-65
2022/03/09 03:36:45;;;;;;;0.95;0.60;;;21.70;55.00;;;;;;5033434;28;20021;-65
2022/03/09 03:39:13;;;;;;;0.80;0.70;;;21.70;55.00;;;;;;5033374;28;20557;-65
2022/03/09 03:41:39;;;;;;;1.02;0.60;;;21.70;55.10;;;;;;5033239;28;20029;-65
2022/03/09 03:44:04;;;;;;;2.30;0.70;;;21.70;55.10;;;;;;5033170;28;20021;-65
2022/03/09 03:46:30;;;;;;;1.00;0.70;;;21.70;55.10;;;;;;5033138;28;20510;-65
2022/03/09 03:48:56;;;;;;;1.50;0.90;;;21.70;55.10;;;;;;5032824;28;20036;-65
2022/03/09 03:51:21;;;;;;;1.92;0.80;;;21.70;55.10;;;;;;5031871;28;20445;-65
2022/03/09 03:53:47;;;;;;;0.60;0.60;;;21.70;55.10;;;;;;5033349;28;20080;-65
2022/03/09 03:56:12;;;;;;;0.98;0.50;;;21.70;55.20;;;;;;5033041;28;20388;-65
2022/03/09 03:58:38;;;;;;;1.70;0.43;;;21.70;55.10;;;;;;5033253;28;20017;-65
2022/03/09 04:01:04;;;;;;;0.60;0.52;;;21.70;55.10;;;;;;5032543;28;20030;-65
2022/03/09 04:03:29;;;;;;;0.82;0.57;;;21.70;55.10;;;;;;5032932;28;20041;-65
2022/03/09 04:05:55;;;;;;;0.93;0.50;;;21.70;56.20;;;;;;5032885;28;20037;-65
2022/03/09 04:08:20;;;;;;;0.45;0.45;;;21.70;55.20;;;;;;5032678;28;20495;-65
2022/03/09 04:10:46;;;;;;;0.65;0.47;;;21.70;55.20;;;;;;5032764;28;20030;-65
2022/03/09 04:13:12;;;;;;;0.50;0.50;;;21.70;55.20;;;;;;5032800;28;20030;-65
2022/03/09 04:15:37;;;;;;;1.33;0.60;;;21.70;55.20;;;;;;5032469;28;20025;-65
2022/03/09 04:18:03;;;;;;;0.82;0.57;;;21.70;55.20;;;;;;5031301;28;20013;-65
2022/03/09 04:20:29;;;;;;;0.82;0.63;;;21.70;55.30;;;;;;5032710;28;20033;-65
2022/03/09 04:22:54;;;;;;;1.05;0.50;;;21.70;55.20;;;;;;5042049;28;20503;-65
2022/03/09 04:25:20;;;;;;;0.70;0.60;;;21.70;55.30;;;;;;5052522;28;20109;-65
2022/03/09 04:27:46;;;;;;;1.13;0.63;;;21.60;55.20;;;;;;5052393;28;20041;-65
2022/03/09 04:30:11;;;;;;;0.50;0.50;;;21.70;55.30;;;;;;5051980;28;20025;-65
2022/03/09 04:32:37;;;;;;;1.10;0.40;;;21.70;55.30;;;;;;5052397;28;20068;-65
2022/03/09 04:35:04;;;;;;;1.58;0.90;;;21.60;55.30;;;;;;5051867;28;20029;-65
2022/03/09 04:37:30;;;;;;;0.80;0.63;;;21.60;55.30;;;;;;5052370;28;20021;-65
2022/03/09 04:39:59;;;;;;;0.40;0.40;;;21.70;55.30;;;;;;5052209;28;20031;-65
2022/03/09 04:42:26;;;;;;;1.45;0.45;;;21.70;55.30;;;;;;5052166;28;20049;-65
2022/03/09 04:44:52;;;;;;;2.15;0.68;;;21.60;55.30;;;;;;5052120;28;20017;-65
2022/03/09 04:47:17;;;;;;;0.70;0.47;;;21.60;55.30;;;;;;5052174;28;20029;-65
2022/03/09 04:49:43;;;;;;;1.00;0.60;;;21.70;55.40;;;;;;5052173;28;20112;-65
2022/03/09 04:52:08;;;;;;;0.40;0.40;;;21.70;55.40;;;;;;5051892;28;20021;-65
2022/03/09 04:54:34;;;;;;;1.33;0.50;;;21.60;55.30;;;;;;5052132;28;20017;-65
2022/03/09 04:57:00;;;;;;;0.80;0.50;;;21.60;55.30;;;;;;5052037;28;20037;-65
2022/03/09 04:59:25;;;;;;;0.75;0.40;;;21.60;55.40;;;;;;5051998;28;20027;-65
2022/03/09 05:01:51;;;;;;;1.08;0.47;;;21.70;55.40;;;;;;5034249;28;20029;-65
2022/03/09 05:04:17;;;;;;;0.52;0.28;;;21.60;55.40;;;;;;5051871;28;20079;-65
2022/03/09 05:06:42;;;;;;;0.65;0.40;;;21.60;55.40;;;;;;5052032;28;20061;-65
2022/03/09 05:09:08;;;;;;;1.30;0.80;;;21.60;55.50;;;;;;5051943;28;20415;-65
2022/03/09 05:11:33;;;;;;;0.85;0.50;;;21.60;55.40;;;;;;5051977;28;20096;-65
2022/03/09 05:13:59;;;;;;;2.42;0.50;;;21.60;55.40;;;;;;5051712;28;20025;-65
2022/03/09 05:16:25;;;;;;;1.40;0.50;;;21.60;55.40;;;;;;5051750;28;20029;-65
2022/03/09 05:18:50;;;;;;;0.55;0.45;;;21.60;55.40;;;;;;5051930;28;20083;-65
2022/03/09 05:21:16;;;;;;;0.77;0.60;;;21.60;55.40;;;;;;5051812;28;20025;-65
2022/03/09 05:23:42;;;;;;;1.13;0.50;;;21.60;55.50;;;;;;5051588;28;20088;-65
2022/03/09 05:26:08;;;;;;;0.50;0.40;;;21.60;55.50;;;;;;5051669;28;20064;-65
2022/03/09 05:28:33;;;;;;;1.15;0.60;;;21.60;55.50;;;;;;5051770;28;20021;-65
2022/03/09 05:30:59;;;;;;;0.90;0.50;;;21.60;56.40;;;;;;5031390;28;20392;-65
2022/03/09 05:33:25;;;;;;;1.00;0.52;;;21.60;55.50;;;;;;5044781;28;20079;-65
2022/03/09 05:35:50;;;;;;;0.40;0.40;;;21.60;55.50;;;;;;5051906;28;20051;-65
2022/03/09 05:38:16;;;;;;;0.95;0.45;;;21.60;55.50;;;;;;5051537;28;20410;-65
2022/03/09 05:40:42;;;;;;;0.52;0.50;;;21.60;55.50;;;;;;5051753;28;20314;-65
2022/03/09 05:43:07;;;;;;;1.23;0.60;;;21.60;55.60;;;;;;5051348;28;20029;-65
2022/03/09 05:45:33;;;;;;;1.27;0.47;;;21.60;55.50;;;;;;5051740;28;20387;-65
2022/03/09 05:47:58;;;;;;;0.70;0.50;;;21.60;55.60;;;;;;5054243;28;20029;-65
2022/03/09 05:50:24;;;;;;;1.85;0.50;;;21.60;55.50;;;;;;5049573;28;20479;-65
2022/03/09 05:52:50;;;;;;;0.55;0.50;;;21.60;55.60;;;;;;5035301;28;20026;-65
2022/03/09 05:55:15;;;;;;;0.60;0.50;;;21.60;55.60;;;;;;5035351;28;20025;-65
2022/03/09 05:57:41;;;;;;;0.70;0.43;;;21.60;55.60;;;;;;5035194;28;20096;-65
2022/03/09 06:00:07;;;;;;;1.00;0.40;;;21.60;55.60;;;;;;5035119;28;20156;-65
2022/03/09 06:02:33;;;;;;;0.90;0.50;;;21.60;55.60;;;;;;5034283;28;20021;-67
2022/03/09 06:04:59;;;;;;;1.05;0.60;;;21.60;55.80;;;;;;5033922;28;20388;-66
2022/03/09 06:07:25;;;;;;;0.93;0.30;;;21.60;55.30;;;;;;5035015;28;20013;-66
2022/03/09 06:09:50;;;;;;;1.63;0.55;;;21.60;55.00;;;;;;5035061;28;20040;-66
2022/03/09 06:12:16;;;;;;;0.98;0.65;;;21.50;54.90;;;;;;5034783;28;20028;-66
2022/03/09 06:14:42;;;;;;;1.00;0.60;;;21.40;54.90;;;;;;5035063;28;20104;-66
2022/03/09 06:17:08;;;;;;;0.82;0.70;;;21.40;54.90;;;;;;5050801;28;20096;-66
2022/03/09 06:19:33;;;;;;;0.85;0.70;;;21.30;54.90;;;;;;5054826;28;20082;-66
2022/03/09 06:21:59;;;;;;;0.98;0.43;;;21.30;54.90;;;;;;5054674;28;20029;-66
2022/03/09 06:24:25;;;;;;;0.50;0.50;;;21.30;54.90;;;;;;5038907;28;20056;-66
2022/03/09 06:26:50;;;;;;;0.73;0.43;;;21.30;54.90;;;;;;5039238;28;20029;-66
2022/03/09 06:29:16;;;;;;;0.73;0.57;;;21.20;54.80;;;;;;5054665;28;20029;-66
2022/03/09 06:31:44;;;;;;;1.10;0.45;;;21.20;54.80;;;;;;5054561;28;20099;-66
2022/03/09 06:34:11;;;;;;;0.55;0.40;;;21.20;54.80;;;;;;5053447;28;20021;-66
2022/03/09 06:36:36;;;;;;;2.15;0.60;;;21.10;54.80;;;;;;5054507;28;20021;-66
2022/03/09 06:39:02;;;;;;;0.85;0.60;;;21.10;54.70;;;;;;5053615;28;20429;-66
2022/03/09 06:41:28;;;;;;;2.47;0.90;;;21.10;54.80;;;;;;5050964;28;20490;-66
2022/03/09 06:43:54;;;;;;;1.23;0.60;;;21.10;54.70;;;;;;5047965;28;20029;-66
2022/03/09 06:46:19;;;;;;;1.20;0.60;;;21.10;54.70;;;;;;5054475;28;20092;-66
2022/03/09 06:48:45;;;;;;;1.15;0.60;;;21.10;54.70;;;;;;5042718;28;20499;-66
2022/03/09 06:51:11;;;;;;;1.38;0.57;;;21.00;54.70;;;;;;5034473;28;20029;-66
2022/03/09 06:53:36;;;;;;;1.48;0.68;;;21.00;54.60;;;;;;5037496;28;20430;-66
2022/03/09 06:56:02;;;;;;;1.88;0.80;;;21.00;54.60;;;;;;5051173;28;20028;-66
2022/03/09 06:58:28;;;;;;;1.70;0.50;;;21.00;54.60;;;;;;5052472;28;20029;-66
2022/03/09 07:00:55;;;;;;;1.20;0.47;;;21.00;54.70;;;;;;5036893;28;20096;-66
2022/03/09 07:03:21;;;;;;;2.65;0.85;;;21.00;54.70;;;;;;5033253;28;20510;-66
2022/03/09 07:05:46;;;;;;;1.27;0.70;;;21.00;54.70;;;;;;5032960;28;20029;-66
2022/03/09 07:08:12;;;;;;;1.33;0.50;;;20.90;54.60;;;;;;5033419;28;20079;-65
2022/03/09 07:10:38;;;;;;;2.22;0.50;;;20.90;54.60;;;;;;5046993;28;20074;-66
2022/03/09 07:13:03;;;;;;;2.47;0.80;;;20.90;54.60;;;;;;5054161;28;20029;-66
2022/03/09 07:15:29;;;;;;;4.13;0.90;;;20.90;54.60;;;;;;5052056;28;20028;-66
2022/03/09 07:17:54;;;;;;;3.35;1.15;;;20.90;54.80;;;;;;5051265;28;20013;-66
2022/03/09 07:20:20;;;;;;;1.23;0.60;;;20.90;54.70;;;;;;5053436;28;20025;-66
2022/03/09 07:22:46;;;;;;;2.42;0.90;;;20.90;54.80;;;;;;5050421;28;20446;-66
2022/03/09 07:25:12;;;;;;;3.85;0.88;;;20.90;54.90;;;;;;5031049;28;20541;-66
2022/03/09 07:27:38;;;;;;;2.05;0.93;;;20.90;54.90;;;;;;5032203;28;20029;-66
2022/03/09 07:30:04;;;;;;;4.80;0.68;;;20.90;54.90;;;;;;5043950;28;20027;-66
2022/03/09 07:32:30;;;;;;;3.47;0.98;;;20.90;54.90;;;;;;5046558;28;20021;-66
2022/03/09 07:34:56;;;;;;;2.20;0.88;;;20.90;55.00;;;;;;5033418;28;20372;-66
2022/03/09 07:37:21;;;;;;;4.85;1.10;;;20.90;55.00;;;;;;5044769;28;20025;-66
2022/03/09 07:39:47;;;;;;;5.15;0.88;;;20.90;55.00;;;;;;5052214;28;20505;-66
2022/03/09 07:42:12;;;;;;;1.85;0.95;;;20.90;55.00;;;;;;5053260;28;20029;-66
2022/03/09 07:44:38;;;;;;;2.58;0.75;;;20.90;55.10;;;;;;5051829;28;20384;-66
2022/03/09 07:47:04;;;;;;;4.28;1.15;;;20.90;55.10;;;;;;5048445;28;20022;-66
2022/03/09 07:49:33;;;;;;;2.55;0.85;;;20.90;55.10;;;;;;5032928;28;20036;-66
2022/03/09 07:51:59;;;;;;;3.63;1.15;;;20.90;55.00;;;;;;5033084;28;20112;-66
2022/03/09 07:54:25;;;;;;;6.10;1.02;;;20.90;55.10;;;;;;5032918;28;20018;-66
2022/03/09 07:56:51;;;;;;;2.75;0.77;;;20.90;55.10;;;;;;5033049;28;20502;-66
2022/03/09 07:59:16;;;;;;;3.67;0.77;;;20.90;55.10;;;;;;5033040;28;20089;-66
2022/03/09 08:01:43;;;;;;;3.85;0.85;;;20.90;55.10;;;;;;5033987;28;20032;-66
2022/03/09 08:04:09;;;;;;;4.50;1.00;;;20.90;55.10;;;;;;5052931;28;20029;-66
2022/03/09 08:06:34;;;;;;;1.98;0.70;;;20.90;55.10;;;;;;5052595;28;20501;-66
2022/03/09 08:09:00;;;;;;;2.97;1.00;;;20.90;55.10;;;;;;5052244;28;20024;-66
2022/03/09 08:11:26;;;;;;;1.73;0.65;;;20.90;55.20;;;;;;5052401;28;20391;-66
2022/03/09 08:13:53;;;;;;;2.15;0.80;;;20.80;55.10;;;;;;5052780;28;20100;-66
2022/03/09 08:16:19;;;;;;;3.15;0.73;;;20.80;55.10;;;;;;5043274;28;20061;-66
2022/03/09 08:18:44;;;;;;;5.20;1.02;;;20.80;55.10;;;;;;5032728;28;20487;-66
2022/03/09 08:21:10;;;;;;;3.03;0.70;;;20.80;55.10;;;;;;5032435;28;20453;-66
2022/03/09 08:23:35;;;;;;;1.90;0.80;;;20.80;55.10;;;;;;5047637;28;20162;-66
2022/03/09 08:26:01;;;;;;;2.47;0.60;;;20.80;55.20;;;;;;5052501;28;20032;-66
2022/03/09 08:28:27;;;;;;;1.10;0.70;;;20.80;55.10;;;;;;5052436;28;20484;-66
2022/03/09 08:30:54;;;;;;;2.28;0.60;;;20.80;55.10;;;;;;5052529;28;20036;-66
2022/03/09 08:33:20;;;;;;;1.98;0.77;;;20.80;55.10;;;;;;5052343;28;20521;-66
2022/03/09 08:35:45;;;;;;;1.23;0.68;;;20.80;55.20;;;;;;5052069;28;20048;-66
2022/03/09 08:38:11;;;;;;;3.70;0.80;;;20.80;55.10;;;;;;5052227;28;20029;-66
2022/03/09 08:40:37;;;;;;;2.47;0.75;;;20.80;55.10;;;;;;5052278;28;20033;-66
2022/03/09 08:43:02;;;;;;;1.77;0.90;;;20.80;55.20;;;;;;5052251;28;20029;-66
2022/03/09 08:45:28;;;;;;;1.20;0.50;;;20.80;55.10;;;;;;5052144;28;20021;-66
2022/03/09 08:47:54;;;;;;;2.67;1.08;;;20.80;55.20;;;;;;5052252;28;20024;-66
2022/03/09 08:50:19;;;;;;;1.15;0.50;;;20.80;55.10;;;;;;5033977;28;20040;-66
2022/03/09 08:52:45;;;;;;;2.70;0.65;;;20.80;55.20;;;;;;5052022;28;20017;-66
2022/03/09 08:55:10;;;;;;;1.48;0.50;;;20.80;55.20;;;;;;5052233;28;20033;-66
2022/03/09 08:57:36;;;;;;;1.17;0.70;;;20.80;55.20;;;;;;5052026;28;20021;-66
2022/03/09 09:00:04;;;;;;;2.85;0.95;;;20.80;55.20;;;;;;5051980;28;20025;-66
2022/03/09 09:02:30;;;;;;;1.02;0.60;;;20.80;55.20;;;;;;5052008;28;20021;-66
2022/03/09 09:04:56;;;;;;;1.42;0.60;;;20.80;55.20;;;;;;5051918;28;20083;-66
2022/03/09 09:07:22;;;;;;;1.42;0.70;;;20.80;55.20;;;;;;5052115;28;20032;-66
2022/03/09 09:09:48;;;;;;;2.17;0.85;;;20.80;55.20;;;;;;5051961;28;20029;-66
2022/03/09 09:12:13;;;;;;;1.70;0.60;;;20.80;55.20;;;;;;5052062;28;20021;-66
2022/03/09 09:14:39;;;;;;;1.90;0.68;;;20.70;55.10;;;;;;5051893;28;20025;-66
2022/03/09 09:17:05;;;;;;;1.13;0.70;;;20.80;55.20;;;;;;5051962;28;20036;-66
2022/03/09 09:19:31;;;;;;;2.63;0.70;;;20.80;56.20;;;;;;5051671;28;20115;-66
2022/03/09 09:21:56;;;;;;;1.85;0.63;;;20.80;55.20;;;;;;5054794;28;20017;-66
2022/03/09 09:24:22;;;;;;;2.70;0.90;;;20.80;55.20;;;;;;5055776;28;20025;-66
2022/03/09 09:26:48;;;;;;;2.80;0.88;;;20.80;55.20;;;;;;5055824;28;20624;-66
2022/03/09 09:29:14;;;;;;;1.48;0.57;;;20.70;55.10;;;;;;5055847;28;20108;-66
2022/03/09 09:31:40;;;;;;;2.88;0.80;;;20.80;55.20;;;;;;5038148;28;20017;-66
2022/03/09 09:34:07;;;;;;;1.95;0.57;;;20.70;55.10;;;;;;5055466;28;20032;-66
2022/03/09 09:36:33;;;;;;;1.50;0.70;;;20.80;55.20;;;;;;5055555;28;20009;-66
2022/03/09 09:38:59;;;;;;;1.27;0.70;;;20.70;55.10;;;;;;5055578;28;20376;-66
2022/03/09 09:41:26;;;;;;;1.50;0.60;;;20.80;55.20;;;;;;5055384;28;20499;-66
2022/03/09 09:43:52;;;;;;;1.55;0.93;;;20.70;55.10;;;;;;5055527;28;20393;-66
2022/03/09 09:46:17;;;;;;;1.67;0.60;;;20.80;55.20;;;;;;5055459;28;20088;-66
2022/03/09 09:48:43;;;;;;;1.92;0.70;;;20.80;55.20;;;;;;5055032;28;20060;-66
2022/03/09 09:51:09;;;;;;;2.90;0.85;;;20.70;55.10;;;;;;5037778;28;20507;-66
2022/03/09 09:53:35;;;;;;;1.58;0.57;;;20.80;55.20;;;;;;5037602;28;20047;-66
2022/03/09 09:56:02;;;;;;;1.90;0.68;;;20.70;55.10;;;;;;5037821;28;20079;-66
2022/03/09 09:58:28;;;;;;;1.75;0.80;;;20.70;55.10;;;;;;5055523;28;20021;-66
2022/03/09 10:00:55;;;;;;;1.65;0.60;;;20.70;55.10;;;;;;5037410;28;20442;-66
2022/03/09 10:03:20;;;;;;;1.40;0.60;;;20.70;55.10;;;;;;5055035;28;20049;-66
2022/03/09 10:05:46;;;;;;;1.58;0.65;;;20.70;55.10;;;;;;5037287;28;20075;-66
2022/03/09 10:08:17;;;;;;;1.33;0.60;;;20.70;55.10;;;;;;5055317;28;20024;-66
2022/03/09 10:11:04;;;;;;;1.38;0.50;;;20.70;55.20;;;;;;5053746;28;20057;-66
2022/03/09 10:13:33;;;;;;;1.20;0.45;;;20.80;55.00;;;;;;5054569;28;20037;-66
2022/03/09 10:16:16;;;;;;;1.23;0.57;;;20.70;55.20;;;;;;5033709;28;20021;-66
2022/03/09 10:18:48;;;;;;;1.38;0.60;;;20.70;55.00;;;;;;5034695;28;20054;-66
2022/03/09 10:21:19;;;;;;;1.80;0.60;;;20.70;55.10;;;;;;5034756;28;20092;-66
2022/03/09 10:24:06;;;;;;;1.00;0.60;;;20.70;55.20;;;;;;5050098;28;20045;-66
2022/03/09 10:26:41;;;;;;;2.00;0.60;;;20.70;55.00;;;;;;5033651;28;20442;-66
2022/03/09 10:29:13;;;;;;;0.77;0.50;;;20.70;55.20;;;;;;5034852;28;20041;-66
2022/03/09 10:31:45;;;;;;;1.60;0.50;;;20.70;55.20;;;;;;5034595;28;20049;-66
2022/03/09 10:34:37;;;;;;;1.52;0.60;;;20.70;55.20;;;;;;5033757;28;20024;-66
2022/03/09 10:37:04;;;;;;;0.68;0.40;;;20.70;55.20;;;;;;5045610;28;20475;-66
2022/03/09 10:39:31;;;;;;;0.73;0.47;;;20.70;55.20;;;;;;5054510;28;20021;-66
2022/03/09 10:42:01;;;;;;;0.30;0.30;;;20.70;55.20;;;;;;5054432;28;20037;-66
2022/03/09 10:44:43;;;;;;;0.35;0.32;;;20.70;55.20;;;;;;5054385;28;20503;-66
2022/03/09 10:47:08;;;;;;;0.90;0.40;;;20.70;55.10;;;;;;5054170;28;20104;-66
2022/03/09 10:49:34;;;;;;;0.77;0.38;;;20.70;55.10;;;;;;5054075;28;20113;-66
2022/03/09 10:52:00;;;;;;;1.13;0.40;;;20.70;55.10;;;;;;5054188;28;20211;-66
2022/03/09 10:54:30;;;;;;;1.35;0.40;;;20.70;55.20;;;;;;5054242;28;20563;-66
2022/03/09 10:57:08;;;;;;;2.35;0.77;;;20.70;55.10;;;;;;5054111;28;20025;-66
2022/03/09 10:59:50;;;;;;;1.75;0.68;;;20.70;55.10;;;;;;5053983;28;20128;-66
2022/03/09 11:02:19;;;;;;;0.60;0.40;;;20.70;56.00;;;;;;5053916;28;20029;-66
2022/03/09 11:05:08;;;;;;;0.77;0.50;;;20.70;55.10;;;;;;5053920;28;20063;-66
2022/03/09 11:07:35;;;;;;;2.05;0.80;;;20.70;55.00;;;;;;5053854;28;20418;-66
2022/03/09 11:10:01;;;;;;;1.27;0.60;;;20.70;55.10;;;;;;5052820;28;20029;-66
2022/03/09 11:12:27;;;;;;;1.20;0.80;;;20.70;55.10;;;;;;5053951;28;20079;-66
2022/03/09 11:14:53;;;;;;;0.60;0.50;;;20.70;55.10;;;;;;5019212;28;20487;-66
2022/03/09 11:17:22;;;;;;;1.17;0.50;;;20.70;55.10;;;;;;5033259;28;20061;-66
2022/03/09 11:19:48;;;;;;;1.27;0.57;;;20.70;55.10;;;;;;5053849;28;20021;-66
2022/03/09 11:22:14;;;;;;;3.13;0.95;;;20.70;55.10;;;;;;5053513;28;20143;-66
2022/03/09 11:24:40;;;;;;;2.13;0.80;;;20.70;55.00;;;;;;5053406;28;20486;-66
2022/03/09 11:27:07;;;;;;;1.00;0.65;;;20.70;55.10;;;;;;5053543;28;20037;-66
2022/03/09 11:29:36;;;;;;;1.23;0.80;;;20.70;55.10;;;;;;5052039;28;20071;-66
2022/03/09 11:32:11;;;;;;;0.75;0.60;;;20.70;55.00;;;;;;5053515;28;20048;-66
2022/03/09 11:34:46;;;;;;;1.73;0.73;;;20.70;55.00;;;;;;5053501;28;20017;-66
2022/03/09 11:37:32;;;;;;;0.90;0.80;;;20.70;55.00;;;;;;5059629;28;20033;-66
2022/03/09 11:40:10;;;;;;;1.90;0.90;;;20.70;55.00;;;;;;5053226;28;20032;-66
2022/03/09 11:42:39;;;;;;;1.45;1.10;;;20.70;55.00;;;;;;5053261;28;20086;-66
2022/03/09 11:45:14;;;;;;;1.25;0.88;;;20.70;55.00;;;;;;5052990;28;20056;-66
2022/03/09 11:48:09;;;;;;;2.15;0.90;;;20.70;55.00;;;;;;5053169;28;20051;-66
2022/03/09 11:51:01;;;;;;;1.88;1.20;;;20.70;54.90;;;;;;5053079;28;20021;-66
2022/03/09 11:53:43;;;;;;;2.40;1.10;;;20.70;54.90;;;;;;5040394;28;20040;-66
2022/03/09 11:56:31;;;;;;;2.13;1.10;;;20.70;55.00;;;;;;5052981;28;20018;-66
2022/03/09 11:59:14;;;;;;;1.77;0.93;;;20.70;55.00;;;;;;5052564;28;20025;-66
2022/03/09 12:02:04;;;;;;;1.63;1.05;;;20.70;55.00;;;;;;5035096;28;20097;-66
2022/03/09 12:04:42;;;;;;;2.47;1.20;;;20.70;54.90;;;;;;5038857;28;20059;-66
2022/03/09 12:07:14;;;;;;;1.67;1.23;;;20.70;55.00;;;;;;5052869;28;20025;-66
2022/03/09 12:09:59;;;;;;;2.30;1.00;;;20.70;55.10;;;;;;5034525;28;20020;-66
2022/03/09 12:12:27;;;;;;;2.08;1.20;;;20.70;54.90;;;;;;5052703;28;20498;-66
2022/03/09 12:15:03;;;;;;;1.85;1.30;;;20.70;55.10;;;;;;5052286;28;20021;-66
2022/03/09 12:17:34;;;;;;;1.30;1.20;;;20.70;55.00;;;;;;5052436;28;20091;-66
2022/03/09 12:20:15;;;;;;;1.38;1.15;;;20.70;55.00;;;;;;5052459;28;20029;-66
2022/03/09 12:22:56;;;;;;;1.58;1.10;;;20.70;54.90;;;;;;5052302;28;20131;-66
2022/03/09 12:25:41;;;;;;;1.38;0.93;;;20.70;54.90;;;;;;5052526;28;20032;-66
2022/03/09 12:28:25;;;;;;;1.40;0.90;;;20.70;55.80;;;;;;5052308;28;20021;-66
2022/03/09 12:30:54;;;;;;;1.83;0.95;;;20.70;54.90;;;;;;5052358;28;20029;-66
2022/03/09 12:33:30;;;;;;;1.13;0.85;;;20.70;55.00;;;;;;5051265;28;20020;-66
2022/03/09 12:36:11;;;;;;;1.30;0.98;;;20.70;54.90;;;;;;5052275;28;20491;-66
2022/03/09 12:38:39;;;;;;;0.95;0.88;;;20.70;54.90;;;;;;5052420;28;20013;-66
2022/03/09 12:41:05;;;;;;;1.70;1.10;;;20.70;55.00;;;;;;5034516;28;20047;-66
2022/03/09 12:43:47;;;;;;;2.40;1.00;;;20.70;55.00;;;;;;5052233;28;20021;-66
2022/03/09 12:46:12;;;;;;;2.22;1.02;;;20.70;54.80;;;;;;5052354;28;20029;-66
2022/03/09 12:48:38;;;;;;;1.25;0.95;;;20.70;55.00;;;;;;5052282;28;20399;-66
2022/03/09 12:51:04;;;;;;;1.80;1.00;;;20.70;55.00;;;;;;5034222;28;20040;-66